sensor_id;sensor_type;location;lat;lon;timestamp;P1;durP1;ratioP1;P2;durP2;ratioP2
45420;SDS011;55462;47.042;8.292;2023-09-30T00:00:10;15.75;;;9.90;;
45420;SDS011;55462;47.042;8.292;2023-09-30T00:02:36;16.00;;;9.73;;
45420;SDS011;55462;47.042;8.292;2023-09-30T00:05:01;15.40;;;9.52;;
45420;SDS011;55462;47.042;8.292;2023-09-30T00:07:27;14.10;;;8.48;;
45420;SDS011;55462;47.042;8.292;2023-09-30T00:09:53;13.90;;;8.65;;
45420;SDS011;55462;47.042;8.292;2023-09-30T00:12:18;16.33;;;8.95;;
45420;SDS011;55462;47.042;8.292;2023-09-30T00:14:43;19.00;;;9.88;;
45420;SDS011;55462;47.042;8.292;2023-09-30T00:17:09;15.35;;;8.88;;
45420;SDS011;55462;47.042;8.292;2023-09-30T00:19:34;17.08;;;10.25;;
45420;SDS011;55462;47.042;8.292;2023-09-30T00:22:00;17.13;;;9.55;;
45420;SDS011;55462;47.042;8.292;2023-09-30T00:24:25;15.68;;;9.20;;
45420;SDS011;55462;47.042;8.292;2023-09-30T00:26:51;12.52;;;8.20;;
45420;SDS011;55462;47.042;8.292;2023-09-30T00:29:16;16.27;;;9.63;;
45420;SDS011;55462;47.042;8.292;2023-09-30T00:31:42;13.27;;;8.48;;
45420;SDS011;55462;47.042;8.292;2023-09-30T00:34:09;15.07;;;9.13;;
45420;SDS011;55462;47.042;8.292;2023-09-30T00:36:34;17.80;;;9.25;;
45420;SDS011;55462;47.042;8.292;2023-09-30T00:38:59;16.13;;;9.38;;
45420;SDS011;55462;47.042;8.292;2023-09-30T00:41:25;15.60;;;8.93;;
45420;SDS011;55462;47.042;8.292;2023-09-30T00:43:50;16.77;;;8.85;;
45420;SDS011;55462;47.042;8.292;2023-09-30T00:46:26;19.42;;;8.85;;
45420;SDS011;55462;47.042;8.292;2023-09-30T00:48:54;13.60;;;8.35;;
45420;SDS011;55462;47.042;8.292;2023-09-30T00:51:21;13.98;;;9.15;;
45420;SDS011;55462;47.042;8.292;2023-09-30T00:53:46;14.25;;;8.70;;
45420;SDS011;55462;47.042;8.292;2023-09-30T00:56:12;17.05;;;8.48;;
45420;SDS011;55462;47.042;8.292;2023-09-30T00:58:38;13.80;;;8.32;;
45420;SDS011;55462;47.042;8.292;2023-09-30T01:01:03;14.25;;;9.05;;
45420;SDS011;55462;47.042;8.292;2023-09-30T01:03:29;16.13;;;8.68;;
45420;SDS011;55462;47.042;8.292;2023-09-30T01:05:54;13.88;;;8.68;;
45420;SDS011;55462;47.042;8.292;2023-09-30T01:08:20;15.65;;;9.35;;
45420;SDS011;55462;47.042;8.292;2023-09-30T01:10:45;15.90;;;8.60;;
45420;SDS011;55462;47.042;8.292;2023-09-30T01:13:11;17.15;;;9.55;;
45420;SDS011;55462;47.042;8.292;2023-09-30T01:15:37;16.25;;;8.68;;
45420;SDS011;55462;47.042;8.292;2023-09-30T01:18:03;17.65;;;8.75;;
45420;SDS011;55462;47.042;8.292;2023-09-30T01:20:28;15.63;;;9.55;;
45420;SDS011;55462;47.042;8.292;2023-09-30T01:22:54;13.63;;;9.15;;
45420;SDS011;55462;47.042;8.292;2023-09-30T01:25:22;14.63;;;8.73;;
45420;SDS011;55462;47.042;8.292;2023-09-30T01:27:47;14.15;;;8.13;;
45420;SDS011;55462;47.042;8.292;2023-09-30T01:30:12;17.63;;;8.68;;
45420;SDS011;55462;47.042;8.292;2023-09-30T01:32:38;15.48;;;8.57;;
45420;SDS011;55462;47.042;8.292;2023-09-30T01:35:04;14.98;;;8.75;;
45420;SDS011;55462;47.042;8.292;2023-09-30T01:37:30;13.63;;;7.90;;
45420;SDS011;55462;47.042;8.292;2023-09-30T01:39:55;14.68;;;9.32;;
45420;SDS011;55462;47.042;8.292;2023-09-30T01:42:20;13.30;;;8.43;;
45420;SDS011;55462;47.042;8.292;2023-09-30T01:44:46;12.68;;;8.30;;
45420;SDS011;55462;47.042;8.292;2023-09-30T01:47:11;15.60;;;8.55;;
45420;SDS011;55462;47.042;8.292;2023-09-30T01:49:37;14.32;;;8.68;;
45420;SDS011;55462;47.042;8.292;2023-09-30T01:52:02;15.60;;;9.43;;
45420;SDS011;55462;47.042;8.292;2023-09-30T01:54:28;17.45;;;9.27;;
45420;SDS011;55462;47.042;8.292;2023-09-30T01:56:53;17.70;;;9.13;;
45420;SDS011;55462;47.042;8.292;2023-09-30T01:59:18;13.13;;;8.20;;
45420;SDS011;55462;47.042;8.292;2023-09-30T02:01:44;14.38;;;8.95;;
45420;SDS011;55462;47.042;8.292;2023-09-30T02:04:11;13.88;;;8.02;;
45420;SDS011;55462;47.042;8.292;2023-09-30T02:06:36;14.23;;;8.02;;
45420;SDS011;55462;47.042;8.292;2023-09-30T02:09:01;16.75;;;8.98;;
45420;SDS011;55462;47.042;8.292;2023-09-30T02:11:28;15.60;;;9.38;;
45420;SDS011;55462;47.042;8.292;2023-09-30T02:13:53;14.13;;;8.93;;
45420;SDS011;55462;47.042;8.292;2023-09-30T02:16:19;18.63;;;10.07;;
45420;SDS011;55462;47.042;8.292;2023-09-30T02:18:44;15.85;;;9.25;;
45420;SDS011;55462;47.042;8.292;2023-09-30T02:21:10;15.57;;;9.10;;
45420;SDS011;55462;47.042;8.292;2023-09-30T02:23:35;13.52;;;9.27;;
45420;SDS011;55462;47.042;8.292;2023-09-30T02:26:01;16.17;;;9.57;;
45420;SDS011;55462;47.042;8.292;2023-09-30T02:28:27;15.38;;;9.70;;
45420;SDS011;55462;47.042;8.292;2023-09-30T02:30:53;13.80;;;9.35;;
45420;SDS011;55462;47.042;8.292;2023-09-30T02:33:18;15.73;;;9.65;;
45420;SDS011;55462;47.042;8.292;2023-09-30T02:35:44;15.45;;;9.57;;
45420;SDS011;55462;47.042;8.292;2023-09-30T02:38:10;17.83;;;9.77;;
45420;SDS011;55462;47.042;8.292;2023-09-30T02:40:36;15.13;;;9.90;;
45420;SDS011;55462;47.042;8.292;2023-09-30T02:43:01;16.02;;;9.77;;
45420;SDS011;55462;47.042;8.292;2023-09-30T02:45:27;16.25;;;9.48;;
45420;SDS011;55462;47.042;8.292;2023-09-30T02:47:52;17.77;;;9.55;;
45420;SDS011;55462;47.042;8.292;2023-09-30T02:50:17;20.05;;;10.32;;
45420;SDS011;55462;47.042;8.292;2023-09-30T02:52:43;15.45;;;9.40;;
45420;SDS011;55462;47.042;8.292;2023-09-30T02:55:08;15.80;;;9.68;;
45420;SDS011;55462;47.042;8.292;2023-09-30T02:57:34;15.63;;;9.25;;
45420;SDS011;55462;47.042;8.292;2023-09-30T03:00:01;15.45;;;10.18;;
45420;SDS011;55462;47.042;8.292;2023-09-30T03:02:51;14.63;;;9.20;;
45420;SDS011;55462;47.042;8.292;2023-09-30T03:05:17;11.98;;;9.10;;
45420;SDS011;55462;47.042;8.292;2023-09-30T03:07:43;16.33;;;9.50;;
45420;SDS011;55462;47.042;8.292;2023-09-30T03:10:08;15.40;;;9.07;;
45420;SDS011;55462;47.042;8.292;2023-09-30T03:12:34;17.17;;;9.25;;
45420;SDS011;55462;47.042;8.292;2023-09-30T03:15:00;14.65;;;9.50;;
45420;SDS011;55462;47.042;8.292;2023-09-30T03:17:29;14.85;;;9.57;;
45420;SDS011;55462;47.042;8.292;2023-09-30T03:19:58;13.95;;;8.48;;
45420;SDS011;55462;47.042;8.292;2023-09-30T03:22:33;16.05;;;9.38;;
45420;SDS011;55462;47.042;8.292;2023-09-30T03:24:58;13.52;;;9.05;;
45420;SDS011;55462;47.042;8.292;2023-09-30T03:27:25;15.32;;;8.98;;
45420;SDS011;55462;47.042;8.292;2023-09-30T03:29:50;16.52;;;8.70;;
45420;SDS011;55462;47.042;8.292;2023-09-30T03:32:15;16.38;;;9.07;;
45420;SDS011;55462;47.042;8.292;2023-09-30T03:34:41;13.77;;;8.63;;
45420;SDS011;55462;47.042;8.292;2023-09-30T03:37:09;14.05;;;9.68;;
45420;SDS011;55462;47.042;8.292;2023-09-30T03:39:35;16.10;;;9.73;;
45420;SDS011;55462;47.042;8.292;2023-09-30T03:42:00;15.48;;;9.38;;
45420;SDS011;55462;47.042;8.292;2023-09-30T03:44:26;13.88;;;9.10;;
45420;SDS011;55462;47.042;8.292;2023-09-30T03:46:51;14.32;;;9.18;;
45420;SDS011;55462;47.042;8.292;2023-09-30T03:49:18;16.50;;;9.30;;
45420;SDS011;55462;47.042;8.292;2023-09-30T03:51:45;13.30;;;8.98;;
45420;SDS011;55462;47.042;8.292;2023-09-30T03:54:10;16.05;;;9.50;;
45420;SDS011;55462;47.042;8.292;2023-09-30T03:56:36;17.77;;;10.07;;
45420;SDS011;55462;47.042;8.292;2023-09-30T03:59:03;12.63;;;9.70;;
45420;SDS011;55462;47.042;8.292;2023-09-30T04:01:29;16.90;;;10.27;;
45420;SDS011;55462;47.042;8.292;2023-09-30T04:03:54;19.42;;;11.13;;
45420;SDS011;55462;47.042;8.292;2023-09-30T04:06:20;20.67;;;11.07;;
45420;SDS011;55462;47.042;8.292;2023-09-30T04:08:46;15.65;;;10.52;;
45420;SDS011;55462;47.042;8.292;2023-09-30T04:11:11;16.48;;;9.63;;
45420;SDS011;55462;47.042;8.292;2023-09-30T04:13:42;18.17;;;10.55;;
45420;SDS011;55462;47.042;8.292;2023-09-30T04:16:08;17.50;;;11.02;;
45420;SDS011;55462;47.042;8.292;2023-09-30T04:18:33;15.98;;;10.00;;
45420;SDS011;55462;47.042;8.292;2023-09-30T04:20:59;19.63;;;11.23;;
45420;SDS011;55462;47.042;8.292;2023-09-30T04:23:24;16.25;;;9.15;;
45420;SDS011;55462;47.042;8.292;2023-09-30T04:25:50;18.15;;;10.43;;
45420;SDS011;55462;47.042;8.292;2023-09-30T04:28:15;16.65;;;10.20;;
45420;SDS011;55462;47.042;8.292;2023-09-30T04:30:45;15.05;;;8.93;;
45420;SDS011;55462;47.042;8.292;2023-09-30T04:33:12;16.30;;;10.15;;
45420;SDS011;55462;47.042;8.292;2023-09-30T04:35:38;15.73;;;9.40;;
45420;SDS011;55462;47.042;8.292;2023-09-30T04:38:03;15.85;;;9.63;;
45420;SDS011;55462;47.042;8.292;2023-09-30T04:40:29;16.35;;;9.35;;
45420;SDS011;55462;47.042;8.292;2023-09-30T04:42:55;17.40;;;9.75;;
45420;SDS011;55462;47.042;8.292;2023-09-30T04:45:23;14.93;;;8.85;;
45420;SDS011;55462;47.042;8.292;2023-09-30T04:47:52;15.20;;;9.23;;
45420;SDS011;55462;47.042;8.292;2023-09-30T04:50:18;16.92;;;8.82;;
45420;SDS011;55462;47.042;8.292;2023-09-30T04:52:46;16.50;;;8.85;;
45420;SDS011;55462;47.042;8.292;2023-09-30T04:55:12;18.17;;;9.85;;
45420;SDS011;55462;47.042;8.292;2023-09-30T04:57:40;13.82;;;9.05;;
45420;SDS011;55462;47.042;8.292;2023-09-30T05:00:07;16.23;;;9.05;;
45420;SDS011;55462;47.042;8.292;2023-09-30T05:02:36;14.43;;;8.23;;
45420;SDS011;55462;47.042;8.292;2023-09-30T05:05:01;12.40;;;7.90;;
45420;SDS011;55462;47.042;8.292;2023-09-30T05:07:29;11.85;;;7.70;;
45420;SDS011;55462;47.042;8.292;2023-09-30T05:09:54;15.30;;;8.38;;
45420;SDS011;55462;47.042;8.292;2023-09-30T05:12:20;11.38;;;7.22;;
45420;SDS011;55462;47.042;8.292;2023-09-30T05:14:45;14.55;;;7.78;;
45420;SDS011;55462;47.042;8.292;2023-09-30T05:17:10;12.05;;;7.68;;
45420;SDS011;55462;47.042;8.292;2023-09-30T05:19:37;13.18;;;7.28;;
45420;SDS011;55462;47.042;8.292;2023-09-30T05:22:02;14.63;;;6.85;;
45420;SDS011;55462;47.042;8.292;2023-09-30T05:24:28;11.65;;;6.65;;
45420;SDS011;55462;47.042;8.292;2023-09-30T05:26:53;11.45;;;6.18;;
45420;SDS011;55462;47.042;8.292;2023-09-30T05:29:18;11.38;;;6.75;;
45420;SDS011;55462;47.042;8.292;2023-09-30T05:31:45;8.90;;;5.97;;
45420;SDS011;55462;47.042;8.292;2023-09-30T05:34:10;11.45;;;5.85;;
45420;SDS011;55462;47.042;8.292;2023-09-30T05:36:36;11.68;;;6.22;;
45420;SDS011;55462;47.042;8.292;2023-09-30T05:39:01;10.60;;;6.35;;
45420;SDS011;55462;47.042;8.292;2023-09-30T05:41:28;10.73;;;5.60;;
45420;SDS011;55462;47.042;8.292;2023-09-30T05:43:53;11.45;;;6.43;;
45420;SDS011;55462;47.042;8.292;2023-09-30T05:46:18;11.27;;;6.10;;
45420;SDS011;55462;47.042;8.292;2023-09-30T05:48:44;9.13;;;6.07;;
45420;SDS011;55462;47.042;8.292;2023-09-30T05:51:09;13.88;;;5.93;;
45420;SDS011;55462;47.042;8.292;2023-09-30T05:53:34;19.33;;;6.63;;
45420;SDS011;55462;47.042;8.292;2023-09-30T05:56:01;9.45;;;5.50;;
45420;SDS011;55462;47.042;8.292;2023-09-30T05:58:26;9.57;;;5.80;;
45420;SDS011;55462;47.042;8.292;2023-09-30T06:00:52;10.43;;;6.15;;
45420;SDS011;55462;47.042;8.292;2023-09-30T06:03:18;9.15;;;5.90;;
45420;SDS011;55462;47.042;8.292;2023-09-30T06:05:43;9.98;;;5.78;;
45420;SDS011;55462;47.042;8.292;2023-09-30T06:08:09;11.27;;;6.05;;
45420;SDS011;55462;47.042;8.292;2023-09-30T06:10:39;10.98;;;6.25;;
45420;SDS011;55462;47.042;8.292;2023-09-30T06:13:08;10.93;;;6.32;;
45420;SDS011;55462;47.042;8.292;2023-09-30T06:15:33;10.90;;;6.22;;
45420;SDS011;55462;47.042;8.292;2023-09-30T06:18:02;10.70;;;5.78;;
45420;SDS011;55462;47.042;8.292;2023-09-30T06:20:29;9.20;;;6.05;;
45420;SDS011;55462;47.042;8.292;2023-09-30T06:22:55;10.00;;;5.70;;
45420;SDS011;55462;47.042;8.292;2023-09-30T06:25:21;10.60;;;6.63;;
45420;SDS011;55462;47.042;8.292;2023-09-30T06:27:49;8.50;;;5.50;;
45420;SDS011;55462;47.042;8.292;2023-09-30T06:30:15;10.93;;;6.13;;
45420;SDS011;55462;47.042;8.292;2023-09-30T06:32:41;9.38;;;6.35;;
45420;SDS011;55462;47.042;8.292;2023-09-30T06:35:07;11.05;;;6.35;;
45420;SDS011;55462;47.042;8.292;2023-09-30T06:37:35;9.93;;;6.00;;
45420;SDS011;55462;47.042;8.292;2023-09-30T06:40:06;9.57;;;6.10;;
45420;SDS011;55462;47.042;8.292;2023-09-30T06:42:33;10.10;;;6.00;;
45420;SDS011;55462;47.042;8.292;2023-09-30T06:44:58;10.65;;;5.65;;
45420;SDS011;55462;47.042;8.292;2023-09-30T06:47:24;9.93;;;5.55;;
45420;SDS011;55462;47.042;8.292;2023-09-30T06:49:49;10.65;;;5.82;;
45420;SDS011;55462;47.042;8.292;2023-09-30T06:52:15;9.23;;;5.55;;
45420;SDS011;55462;47.042;8.292;2023-09-30T06:54:40;9.90;;;5.80;;
45420;SDS011;55462;47.042;8.292;2023-09-30T06:57:05;8.75;;;5.85;;
45420;SDS011;55462;47.042;8.292;2023-09-30T06:59:34;10.73;;;6.32;;
45420;SDS011;55462;47.042;8.292;2023-09-30T07:01:59;8.88;;;5.65;;
45420;SDS011;55462;47.042;8.292;2023-09-30T07:04:25;11.45;;;6.07;;
45420;SDS011;55462;47.042;8.292;2023-09-30T07:06:52;10.27;;;5.80;;
45420;SDS011;55462;47.042;8.292;2023-09-30T07:09:17;11.82;;;6.13;;
45420;SDS011;55462;47.042;8.292;2023-09-30T07:11:44;10.25;;;6.32;;
45420;SDS011;55462;47.042;8.292;2023-09-30T07:14:10;12.15;;;6.38;;
45420;SDS011;55462;47.042;8.292;2023-09-30T07:16:35;11.38;;;6.22;;
45420;SDS011;55462;47.042;8.292;2023-09-30T07:19:01;10.90;;;6.43;;
45420;SDS011;55462;47.042;8.292;2023-09-30T07:21:27;10.45;;;6.32;;
45420;SDS011;55462;47.042;8.292;2023-09-30T07:23:53;10.07;;;6.13;;
45420;SDS011;55462;47.042;8.292;2023-09-30T07:26:22;9.52;;;5.80;;
45420;SDS011;55462;47.042;8.292;2023-09-30T07:28:49;10.20;;;6.22;;
45420;SDS011;55462;47.042;8.292;2023-09-30T07:31:14;11.43;;;6.32;;
45420;SDS011;55462;47.042;8.292;2023-09-30T07:33:39;9.38;;;5.43;;
45420;SDS011;55462;47.042;8.292;2023-09-30T07:36:05;11.57;;;6.38;;
45420;SDS011;55462;47.042;8.292;2023-09-30T07:38:30;12.85;;;6.97;;
45420;SDS011;55462;47.042;8.292;2023-09-30T07:40:55;9.88;;;6.00;;
45420;SDS011;55462;47.042;8.292;2023-09-30T07:43:21;12.20;;;6.50;;
45420;SDS011;55462;47.042;8.292;2023-09-30T07:45:47;11.85;;;6.60;;
45420;SDS011;55462;47.042;8.292;2023-09-30T07:48:12;12.38;;;6.85;;
45420;SDS011;55462;47.042;8.292;2023-09-30T07:50:39;12.48;;;7.40;;
45420;SDS011;55462;47.042;8.292;2023-09-30T07:53:04;9.02;;;5.72;;
45420;SDS011;55462;47.042;8.292;2023-09-30T07:55:29;9.38;;;5.90;;
45420;SDS011;55462;47.042;8.292;2023-09-30T07:57:56;12.15;;;6.05;;
45420;SDS011;55462;47.042;8.292;2023-09-30T08:00:22;9.63;;;5.70;;
45420;SDS011;55462;47.042;8.292;2023-09-30T08:02:48;12.98;;;6.82;;
45420;SDS011;55462;47.042;8.292;2023-09-30T08:05:15;13.57;;;7.20;;
45420;SDS011;55462;47.042;8.292;2023-09-30T08:07:40;9.63;;;6.30;;
45420;SDS011;55462;47.042;8.292;2023-09-30T08:12:44;10.90;;;6.65;;
45420;SDS011;55462;47.042;8.292;2023-09-30T08:15:16;10.45;;;6.05;;
45420;SDS011;55462;47.042;8.292;2023-09-30T08:17:42;10.65;;;6.38;;
45420;SDS011;55462;47.042;8.292;2023-09-30T08:20:07;11.90;;;6.75;;
45420;SDS011;55462;47.042;8.292;2023-09-30T08:22:36;9.73;;;6.40;;
45420;SDS011;55462;47.042;8.292;2023-09-30T08:25:01;10.63;;;6.60;;
45420;SDS011;55462;47.042;8.292;2023-09-30T08:27:27;11.32;;;6.32;;
45420;SDS011;55462;47.042;8.292;2023-09-30T08:29:52;12.70;;;6.80;;
45420;SDS011;55462;47.042;8.292;2023-09-30T08:32:18;10.60;;;6.50;;
45420;SDS011;55462;47.042;8.292;2023-09-30T08:34:43;11.82;;;6.68;;
45420;SDS011;55462;47.042;8.292;2023-09-30T08:37:09;11.35;;;7.43;;
45420;SDS011;55462;47.042;8.292;2023-09-30T08:39:38;10.18;;;6.78;;
45420;SDS011;55462;47.042;8.292;2023-09-30T08:42:06;11.45;;;6.70;;
45420;SDS011;55462;47.042;8.292;2023-09-30T08:44:36;10.30;;;6.47;;
45420;SDS011;55462;47.042;8.292;2023-09-30T08:47:03;10.98;;;6.20;;
45420;SDS011;55462;47.042;8.292;2023-09-30T08:49:28;12.00;;;6.75;;
45420;SDS011;55462;47.042;8.292;2023-09-30T08:51:54;9.27;;;6.28;;
45420;SDS011;55462;47.042;8.292;2023-09-30T08:54:20;9.95;;;6.43;;
45420;SDS011;55462;47.042;8.292;2023-09-30T08:56:47;9.82;;;6.30;;
45420;SDS011;55462;47.042;8.292;2023-09-30T08:59:14;13.50;;;6.88;;
45420;SDS011;55462;47.042;8.292;2023-09-30T09:01:40;10.85;;;6.03;;
45420;SDS011;55462;47.042;8.292;2023-09-30T09:04:05;10.65;;;6.10;;
45420;SDS011;55462;47.042;8.292;2023-09-30T09:06:32;10.55;;;5.75;;
45420;SDS011;55462;47.042;8.292;2023-09-30T09:09:12;10.23;;;6.57;;
45420;SDS011;55462;47.042;8.292;2023-09-30T09:11:47;8.77;;;6.28;;
45420;SDS011;55462;47.042;8.292;2023-09-30T09:14:12;10.05;;;6.47;;
45420;SDS011;55462;47.042;8.292;2023-09-30T09:16:49;11.15;;;5.97;;
45420;SDS011;55462;47.042;8.292;2023-09-30T09:19:15;10.48;;;6.88;;
45420;SDS011;55462;47.042;8.292;2023-09-30T09:21:57;9.60;;;5.93;;
45420;SDS011;55462;47.042;8.292;2023-09-30T09:24:27;10.35;;;6.18;;
45420;SDS011;55462;47.042;8.292;2023-09-30T09:27:03;11.52;;;6.32;;
45420;SDS011;55462;47.042;8.292;2023-09-30T09:29:40;11.45;;;6.43;;
45420;SDS011;55462;47.042;8.292;2023-09-30T09:32:12;8.85;;;6.53;;
45420;SDS011;55462;47.042;8.292;2023-09-30T09:34:39;9.95;;;5.90;;
45420;SDS011;55462;47.042;8.292;2023-09-30T09:37:15;13.75;;;6.43;;
45420;SDS011;55462;47.042;8.292;2023-09-30T09:39:53;9.10;;;5.97;;
45420;SDS011;55462;47.042;8.292;2023-09-30T09:42:38;11.02;;;6.43;;
45420;SDS011;55462;47.042;8.292;2023-09-30T09:45:05;10.98;;;6.28;;
45420;SDS011;55462;47.042;8.292;2023-09-30T09:47:33;13.95;;;6.57;;
45420;SDS011;55462;47.042;8.292;2023-09-30T09:49:59;11.23;;;6.65;;
45420;SDS011;55462;47.042;8.292;2023-09-30T09:52:25;12.48;;;6.93;;
45420;SDS011;55462;47.042;8.292;2023-09-30T09:54:51;12.25;;;6.43;;
45420;SDS011;55462;47.042;8.292;2023-09-30T09:57:17;9.38;;;6.10;;
45420;SDS011;55462;47.042;8.292;2023-09-30T09:59:43;12.75;;;6.72;;
45420;SDS011;55462;47.042;8.292;2023-09-30T10:02:13;11.27;;;6.85;;
45420;SDS011;55462;47.042;8.292;2023-09-30T10:04:42;12.20;;;6.50;;
45420;SDS011;55462;47.042;8.292;2023-09-30T10:07:09;9.00;;;6.38;;
45420;SDS011;55462;47.042;8.292;2023-09-30T10:09:39;12.80;;;7.45;;
45420;SDS011;55462;47.042;8.292;2023-09-30T10:12:06;10.23;;;6.35;;
45420;SDS011;55462;47.042;8.292;2023-09-30T10:14:33;12.88;;;7.50;;
45420;SDS011;55462;47.042;8.292;2023-09-30T10:17:00;10.27;;;7.25;;
45420;SDS011;55462;47.042;8.292;2023-09-30T10:19:29;9.98;;;6.50;;
45420;SDS011;55462;47.042;8.292;2023-09-30T10:24:40;12.85;;;7.97;;
45420;SDS011;55462;47.042;8.292;2023-09-30T10:29:47;11.07;;;6.82;;
45420;SDS011;55462;47.042;8.292;2023-09-30T10:32:12;13.52;;;7.95;;
45420;SDS011;55462;47.042;8.292;2023-09-30T10:34:39;12.57;;;8.18;;
45420;SDS011;55462;47.042;8.292;2023-09-30T10:37:20;14.25;;;7.90;;
45420;SDS011;55462;47.042;8.292;2023-09-30T10:39:53;14.05;;;7.45;;
45420;SDS011;55462;47.042;8.292;2023-09-30T10:50:55;13.55;;;8.13;;
45420;SDS011;55462;47.042;8.292;2023-09-30T10:53:21;14.50;;;8.57;;
45420;SDS011;55462;47.042;8.292;2023-09-30T10:55:53;14.68;;;8.13;;
45420;SDS011;55462;47.042;8.292;2023-09-30T10:58:20;15.43;;;9.23;;
45420;SDS011;55462;47.042;8.292;2023-09-30T11:01:12;17.48;;;8.95;;
45420;SDS011;55462;47.042;8.292;2023-09-30T11:03:39;13.68;;;8.25;;
45420;SDS011;55462;47.042;8.292;2023-09-30T11:06:06;12.60;;;8.07;;
45420;SDS011;55462;47.042;8.292;2023-09-30T11:08:31;14.82;;;8.00;;
45420;SDS011;55462;47.042;8.292;2023-09-30T11:10:57;11.45;;;7.18;;
45420;SDS011;55462;47.042;8.292;2023-09-30T11:13:22;12.95;;;8.43;;
45420;SDS011;55462;47.042;8.292;2023-09-30T11:15:59;10.93;;;7.10;;
45420;SDS011;55462;47.042;8.292;2023-09-30T11:18:25;14.27;;;8.65;;
45420;SDS011;55462;47.042;8.292;2023-09-30T11:20:50;20.05;;;9.30;;
45420;SDS011;55462;47.042;8.292;2023-09-30T11:23:28;15.25;;;9.50;;
45420;SDS011;55462;47.042;8.292;2023-09-30T11:25:54;11.73;;;8.27;;
45420;SDS011;55462;47.042;8.292;2023-09-30T11:28:19;15.43;;;8.48;;
45420;SDS011;55462;47.042;8.292;2023-09-30T11:30:55;14.80;;;8.70;;
45420;SDS011;55462;47.042;8.292;2023-09-30T11:33:24;15.27;;;9.63;;
45420;SDS011;55462;47.042;8.292;2023-09-30T11:36:00;14.27;;;8.43;;
45420;SDS011;55462;47.042;8.292;2023-09-30T11:38:27;14.75;;;8.38;;
45420;SDS011;55462;47.042;8.292;2023-09-30T11:41:04;17.15;;;9.02;;
45420;SDS011;55462;47.042;8.292;2023-09-30T11:43:32;18.25;;;9.20;;
45420;SDS011;55462;47.042;8.292;2023-09-30T11:46:11;15.68;;;9.45;;
45420;SDS011;55462;47.042;8.292;2023-09-30T11:48:39;14.27;;;9.43;;
45420;SDS011;55462;47.042;8.292;2023-09-30T11:51:06;16.52;;;8.90;;
45420;SDS011;55462;47.042;8.292;2023-09-30T11:53:31;14.45;;;9.20;;
45420;SDS011;55462;47.042;8.292;2023-09-30T11:55:58;15.95;;;9.00;;
45420;SDS011;55462;47.042;8.292;2023-09-30T11:58:27;15.95;;;9.27;;
45420;SDS011;55462;47.042;8.292;2023-09-30T12:00:57;16.15;;;9.55;;
45420;SDS011;55462;47.042;8.292;2023-09-30T12:03:24;13.82;;;9.00;;
45420;SDS011;55462;47.042;8.292;2023-09-30T12:05:50;13.00;;;9.00;;
45420;SDS011;55462;47.042;8.292;2023-09-30T12:08:16;13.82;;;8.95;;
45420;SDS011;55462;47.042;8.292;2023-09-30T12:10:41;13.30;;;8.55;;
45420;SDS011;55462;47.042;8.292;2023-09-30T12:13:07;16.92;;;9.20;;
45420;SDS011;55462;47.042;8.292;2023-09-30T12:15:32;15.95;;;10.05;;
45420;SDS011;55462;47.042;8.292;2023-09-30T12:17:57;15.25;;;9.23;;
45420;SDS011;55462;47.042;8.292;2023-09-30T12:20:23;14.52;;;9.10;;
45420;SDS011;55462;47.042;8.292;2023-09-30T12:22:50;13.25;;;8.52;;
45420;SDS011;55462;47.042;8.292;2023-09-30T12:25:16;14.15;;;8.55;;
45420;SDS011;55462;47.042;8.292;2023-09-30T12:27:44;13.00;;;8.98;;
45420;SDS011;55462;47.042;8.292;2023-09-30T12:30:11;17.00;;;10.20;;
45420;SDS011;55462;47.042;8.292;2023-09-30T12:32:38;17.50;;;8.75;;
45420;SDS011;55462;47.042;8.292;2023-09-30T12:35:04;16.25;;;9.70;;
45420;SDS011;55462;47.042;8.292;2023-09-30T12:37:30;17.42;;;9.05;;
45420;SDS011;55462;47.042;8.292;2023-09-30T12:39:55;12.80;;;8.32;;
45420;SDS011;55462;47.042;8.292;2023-09-30T12:42:20;15.77;;;9.20;;
45420;SDS011;55462;47.042;8.292;2023-09-30T12:44:46;15.88;;;9.63;;
45420;SDS011;55462;47.042;8.292;2023-09-30T12:47:11;13.52;;;8.77;;
45420;SDS011;55462;47.042;8.292;2023-09-30T12:49:37;16.08;;;9.75;;
45420;SDS011;55462;47.042;8.292;2023-09-30T12:52:03;16.55;;;9.55;;
45420;SDS011;55462;47.042;8.292;2023-09-30T12:54:28;18.02;;;9.52;;
45420;SDS011;55462;47.042;8.292;2023-09-30T12:56:54;13.75;;;8.93;;
45420;SDS011;55462;47.042;8.292;2023-09-30T12:59:19;14.70;;;9.63;;
45420;SDS011;55462;47.042;8.292;2023-09-30T13:01:49;14.52;;;9.82;;
45420;SDS011;55462;47.042;8.292;2023-09-30T13:04:15;14.88;;;9.25;;
45420;SDS011;55462;47.042;8.292;2023-09-30T13:06:40;15.00;;;8.88;;
45420;SDS011;55462;47.042;8.292;2023-09-30T13:09:06;14.13;;;9.60;;
45420;SDS011;55462;47.042;8.292;2023-09-30T13:11:33;17.50;;;10.23;;
45420;SDS011;55462;47.042;8.292;2023-09-30T13:13:59;14.02;;;8.38;;
45420;SDS011;55462;47.042;8.292;2023-09-30T13:16:24;13.85;;;9.40;;
45420;SDS011;55462;47.042;8.292;2023-09-30T13:18:49;14.85;;;8.77;;
45420;SDS011;55462;47.042;8.292;2023-09-30T13:21:17;13.68;;;8.60;;
45420;SDS011;55462;47.042;8.292;2023-09-30T13:23:42;16.60;;;10.32;;
45420;SDS011;55462;47.042;8.292;2023-09-30T13:26:08;15.10;;;10.27;;
45420;SDS011;55462;47.042;8.292;2023-09-30T13:28:33;13.40;;;9.20;;
45420;SDS011;55462;47.042;8.292;2023-09-30T13:30:59;13.90;;;9.60;;
45420;SDS011;55462;47.042;8.292;2023-09-30T13:33:24;14.43;;;9.18;;
45420;SDS011;55462;47.042;8.292;2023-09-30T13:35:50;16.52;;;9.63;;
45420;SDS011;55462;47.042;8.292;2023-09-30T13:38:15;14.43;;;9.35;;
45420;SDS011;55462;47.042;8.292;2023-09-30T13:40:44;17.02;;;10.45;;
45420;SDS011;55462;47.042;8.292;2023-09-30T13:43:11;16.40;;;10.40;;
45420;SDS011;55462;47.042;8.292;2023-09-30T13:45:36;16.17;;;9.90;;
45420;SDS011;55462;47.042;8.292;2023-09-30T13:48:02;15.43;;;9.98;;
45420;SDS011;55462;47.042;8.292;2023-09-30T13:50:27;16.13;;;9.77;;
45420;SDS011;55462;47.042;8.292;2023-09-30T13:52:53;13.65;;;9.18;;
45420;SDS011;55462;47.042;8.292;2023-09-30T13:55:18;18.17;;;9.35;;
45420;SDS011;55462;47.042;8.292;2023-09-30T13:57:46;14.45;;;9.73;;
45420;SDS011;55462;47.042;8.292;2023-09-30T14:00:12;16.70;;;9.68;;
45420;SDS011;55462;47.042;8.292;2023-09-30T14:02:38;14.20;;;8.60;;
45420;SDS011;55462;47.042;8.292;2023-09-30T14:05:04;14.35;;;8.85;;
45420;SDS011;55462;47.042;8.292;2023-09-30T14:07:33;15.18;;;9.32;;
45420;SDS011;55462;47.042;8.292;2023-09-30T14:09:58;12.85;;;9.07;;
45420;SDS011;55462;47.042;8.292;2023-09-30T14:12:24;12.68;;;8.68;;
45420;SDS011;55462;47.042;8.292;2023-09-30T14:14:49;14.20;;;8.68;;
45420;SDS011;55462;47.042;8.292;2023-09-30T14:17:16;12.55;;;8.98;;
45420;SDS011;55462;47.042;8.292;2023-09-30T14:19:42;14.75;;;9.20;;
45420;SDS011;55462;47.042;8.292;2023-09-30T14:22:07;13.93;;;9.00;;
45420;SDS011;55462;47.042;8.292;2023-09-30T14:24:36;15.00;;;9.65;;
45420;SDS011;55462;47.042;8.292;2023-09-30T14:27:02;14.25;;;8.73;;
45420;SDS011;55462;47.042;8.292;2023-09-30T14:29:40;13.88;;;8.25;;
45420;SDS011;55462;47.042;8.292;2023-09-30T14:32:05;15.55;;;9.35;;
45420;SDS011;55462;47.042;8.292;2023-09-30T14:34:31;12.27;;;8.20;;
45420;SDS011;55462;47.042;8.292;2023-09-30T14:36:57;16.45;;;8.82;;
45420;SDS011;55462;47.042;8.292;2023-09-30T14:39:22;11.40;;;8.18;;
45420;SDS011;55462;47.042;8.292;2023-09-30T14:41:48;17.38;;;8.82;;
45420;SDS011;55462;47.042;8.292;2023-09-30T14:44:13;11.05;;;8.07;;
45420;SDS011;55462;47.042;8.292;2023-09-30T14:46:38;18.10;;;8.75;;
45420;SDS011;55462;47.042;8.292;2023-09-30T14:49:04;12.00;;;8.18;;